Time;durP1;ratioP1;P1;durP2;ratioP2;P2;SDS_P1;SDS_P2;PMS_P1;PMS_P2;Temp;Humidity;BMP_temperature;BMP_pressure;BME280_temperature;BME280_humidity;BME280_pressure;Samples;Min_cycle;Max_cycle;Signal;HPM_P1;HPM_P2
2023/04/25 00:02:08;;;;;;;1.4;1.2;;;;;;;8.81;79.92285;931.6523;;;;
2023/04/25 00:04:33;;;;;;;1.7;1.2;;;;;;;8.82;80.02832;931.6262;;;;
2023/04/25 00:07:01;;;;;;;1.3;1;;;;;;;8.76;79.50488;931.5336;;;;
2023/04/25 00:09:25;;;;;;;1.4;1.2;;;;;;;8.69;79.87793;931.6356;;;;
2023/04/25 00:11:53;;;;;;;1.4;1.3;;;;;;;8.6;80.86133;931.6252;;;;
2023/04/25 00:14:18;;;;;;;1.5;1.3;;;;;;;8.58;80.8584;931.614;;;;
2023/04/25 00:16:43;;;;;;;1.4;1;;;;;;;8.58;80.73145;931.6933;;;;
2023/04/25 00:19:13;;;;;;;1.2;1.1;;;;;;;8.43;82.2041;931.7439;;;;
2023/04/25 00:21:40;;;;;;;1.3;1.1;;;;;;;8.52;81.75586;931.7271;;;;
2023/04/25 00:24:05;;;;;;;1.3;1.2;;;;;;;8.54;81.29297;931.7383;;;;
2023/04/25 00:26:30;;;;;;;1.6;1.3;;;;;;;8.53;80.6543;931.7446;;;;
2023/04/25 00:28:59;;;;;;;1.1;1;;;;;;;8.61;79.85352;931.8391;;;;
2023/04/25 00:31:25;;;;;;;1.8;1.2;;;;;;;8.67;79.80664;931.8538;;;;
2023/04/25 00:33:52;;;;;;;2;1.5;;;;;;;8.54;80.7373;931.9017;;;;
2023/04/25 00:36:18;;;;;;;2.2;1.6;;;;;;;8.58;80.77832;931.8346;;;;
2023/04/25 00:38:46;;;;;;;2.2;1.4;;;;;;;8.56;80.35449;931.8805;;;;
2023/04/25 00:41:11;;;;;;;1.5;1.4;;;;;;;8.58;81.36914;931.8172;;;;
2023/04/25 00:43:36;;;;;;;2.8;1.8;;;;;;;8.63;82.12793;931.8797;;;;
2023/04/25 00:46:01;;;;;;;2;1.7;;;;;;;8.71;82.22363;931.834;;;;
2023/04/25 00:48:26;;;;;;;1.6;1.5;;;;;;;8.81;81.26465;931.8151;;;;
2023/04/25 00:50:54;;;;;;;2.4;1.5;;;;;;;8.69;82.99512;931.838;;;;
2023/04/25 00:53:18;;;;;;;1.6;1.3;;;;;;;8.51;83.50586;931.7977;;;;
2023/04/25 00:55:47;;;;;;;2;1.4;;;;;;;8.51;83.84668;931.7072;;;;
2023/04/25 00:58:12;;;;;;;1.9;1.5;;;;;;;8.41;83.65527;931.7169;;;;
2023/04/25 01:00:37;;;;;;;2.3;1.5;;;;;;;;;;;;;
2023/04/25 01:03:03;;;;;;;2.2;1.6;;;;;;;;;;;;;
2023/04/25 01:05:30;;;;;;;2.2;1.5;;;;;;;;;;;;;
2023/04/25 01:07:55;;;;;;;2.7;1.5;;;;;;;;;;;;;
2023/04/25 01:10:20;;;;;;;1.6;1.5;;;;;;;;;;;;;
2023/04/25 01:12:45;;;;;;;3.3;1.8;;;;;;;;;;;;;
2023/04/25 01:15:13;;;;;;;1.8;1.5;;;;;;;;;;;;;
2023/04/25 01:17:40;;;;;;;2.6;1.6;;;;;;;;;;;;;
2023/04/25 01:20:04;;;;;;;2.2;2;;;;;;;;;;;;;
2023/04/25 01:22:29;;;;;;;3.8;2.1;;;;;;;;;;;;;
2023/04/25 01:24:55;;;;;;;2.3;1.8;;;;;;;;;;;;;
2023/04/25 01:27:21;;;;;;;2.4;1.7;;;;;;;;;;;;;
2023/04/25 01:29:47;;;;;;;2.9;1.7;;;;;;;;;;;;;
2023/04/25 01:32:12;;;;;;;1.9;1.7;;;;;;;;;;;;;
2023/04/25 01:34:38;;;;;;;1.8;1.7;;;;;;;;;;;;;
2023/04/25 01:37:03;;;;;;;1.8;1.7;;;;;;;;;;;;;
2023/04/25 01:39:30;;;;;;;2.1;1.9;;;;;;;;;;;;;
2023/04/25 01:41:55;;;;;;;2.7;2;;;;;;;;;;;;;
2023/04/25 01:44:20;;;;;;;3.2;2.3;;;;;;;;;;;;;
2023/04/25 01:46:45;;;;;;;2.8;2.1;;;;;;;;;;;;;
2023/04/25 01:49:11;;;;;;;2.6;1.9;;;;;;;;;;;;;
2023/04/25 01:51:36;;;;;;;3.8;2;;;;;;;;;;;;;
2023/04/25 01:54:02;;;;;;;2.9;2.3;;;;;;;;;;;;;
2023/04/25 01:56:27;;;;;;;4.1;1.8;;;;;;;;;;;;;
2023/04/25 01:58:54;;;;;;;2.4;2.2;;;;;;;;;;;;;
2023/04/25 02:01:19;;;;;;;2.6;1.8;;;;;;;;;;;;;
2023/04/25 02:03:45;;;;;;;2.5;2.1;;;;;;;;;;;;;
2023/04/25 02:06:11;;;;;;;1.8;1.7;;;;;;;;;;;;;
2023/04/25 02:08:38;;;;;;;2.3;1.8;;;;;;;;;;;;;
2023/04/25 02:11:03;;;;;;;1.9;1.7;;;;;;;;;;;;;
2023/04/25 02:13:28;;;;;;;2.7;1.9;;;;;;;;;;;;;
2023/04/25 02:15:53;;;;;;;3.3;2.7;;;;;;;;;;;;;
2023/04/25 02:18:20;;;;;;;2.5;2;;;;;;;;;;;;;
2023/04/25 02:20:46;;;;;;;2.2;2;;;;;;;;;;;;;
2023/04/25 02:23:11;;;;;;;2.1;1.9;;;;;;;;;;;;;
2023/04/25 02:25:36;;;;;;;2.6;2.2;;;;;;;;;;;;;
2023/04/25 02:28:02;;;;;;;2.6;2.2;;;;;;;;;;;;;
2023/04/25 02:30:27;;;;;;;2;1.7;;;;;;;;;;;;;
2023/04/25 02:32:54;;;;;;;2.6;2.1;;;;;;;;;;;;;
2023/04/25 02:35:19;;;;;;;2.1;1.9;;;;;;;;;;;;;
2023/04/25 02:37:44;;;;;;;2.8;2;;;;;;;;;;;;;
2023/04/25 02:40:09;;;;;;;2.3;2;;;;;;;;;;;;;
2023/04/25 02:42:37;;;;;;;2.1;1.9;;;;;;;;;;;;;
2023/04/25 02:45:02;;;;;;;2.1;1.8;;;;;;;;;;;;;
2023/04/25 02:47:28;;;;;;;4.7;2.2;;;;;;;;;;;;;
2023/04/25 02:49:53;;;;;;;3.3;1.9;;;;;;;;;;;;;
2023/04/25 02:52:18;;;;;;;3.9;2.4;;;;;;;;;;;;;
2023/04/25 02:54:43;;;;;;;2.5;2.3;;;;;;;;;;;;;
2023/04/25 02:57:09;;;;;;;2.7;2.5;;;;;;;;;;;;;
2023/04/25 02:59:34;;;;;;;3.2;2.6;;;;;;;;;;;;;
2023/04/25 03:02:00;;;;;;;3.4;3.1;;;;;;;;;;;;;
2023/04/25 03:04:25;;;;;;;4.7;3.1;;;;;;;;;;;;;
2023/04/25 03:06:51;;;;;;;2.6;2.2;;;;;;;;;;;;;
2023/04/25 03:09:16;;;;;;;2.4;2;;;;;;;;;;;;;
2023/04/25 03:11:42;;;;;;;2.5;2.3;;;;;;;;;;;;;
2023/04/25 03:14:07;;;;;;;2.2;2;;;;;;;;;;;;;
2023/04/25 03:16:34;;;;;;;2.8;2.1;;;;;;;;;;;;;
2023/04/25 03:18:59;;;;;;;3.2;2;;;;;;;;;;;;;
2023/04/25 03:21:24;;;;;;;4.1;2.6;;;;;;;;;;;;;
2023/04/25 03:23:49;;;;;;;3.3;2.5;;;;;;;;;;;;;
2023/04/25 03:26:16;;;;;;;5.1;3.1;;;;;;;;;;;;;
2023/04/25 03:28:41;;;;;;;3;2.7;;;;;;;;;;;;;
2023/04/25 03:31:07;;;;;;;4.3;2.6;;;;;;;;;;;;;
2023/04/25 03:33:32;;;;;;;2.7;2.4;;;;;;;;;;;;;
2023/04/25 03:35:59;;;;;;;2.8;2;;;;;;;;;;;;;
2023/04/25 03:38:24;;;;;;;2.6;2.3;;;;;;;;;;;;;
2023/04/25 03:40:50;;;;;;;3.1;2.1;;;;;;;;;;;;;
2023/04/25 03:43:15;;;;;;;2.7;2.3;;;;;;;;;;;;;
2023/04/25 03:45:41;;;;;;;5.5;4.1;;;;;;;;;;;;;
2023/04/25 03:48:06;;;;;;;4.6;3.3;;;;;;;;;;;;;
2023/04/25 03:50:33;;;;;;;4.4;3.3;;;;;;;;;;;;;
2023/04/25 03:52:58;;;;;;;3.5;2.6;;;;;;;;;;;;;
2023/04/25 03:55:23;;;;;;;3.3;2.6;;;;;;;;;;;;;
2023/04/25 03:57:48;;;;;;;5.9;5.3;;;;;;;;;;;;;
2023/04/25 04:02:37;;;;;;;3.1;2.9;;;;;;;6.62;92.7666;930.8607;;;;
2023/04/25 04:05:12;;;;;;;3.4;2.9;;;;;;;6.66;92.59277;930.8161;;;;
2023/04/25 04:07:44;;;;;;;3.5;3.1;;;;;;;6.7;92.10449;930.7026;;;;
2023/04/25 04:10:14;;;;;;;3.8;3;;;;;;;6.69;92.0127;930.7531;;;;
2023/04/25 04:12:39;;;;;;;2.6;2.3;;;;;;;6.74;92.08984;930.7141;;;;
2023/04/25 04:15:04;;;;;;;3.1;2.8;;;;;;;6.7;91.85547;930.724;;;;
2023/04/25 04:17:29;;;;;;;4.2;2.7;;;;;;;6.55;91.78906;930.7283;;;;
2023/04/25 04:19:59;;;;;;;3.2;2.4;;;;;;;6.29;93.24805;930.7159;;;;
2023/04/25 04:22:25;;;;;;;3.1;2.6;;;;;;;6.13;93.82227;930.7404;;;;
2023/04/25 04:24:54;;;;;;;3.2;2.5;;;;;;;6.24;94.01563;930.7478;;;;
2023/04/25 04:27:21;;;;;;;4.9;2.6;;;;;;;6.28;93.84473;930.7175;;;;
2023/04/25 04:29:45;;;;;;;3.5;2.7;;;;;;;6.33;93.93457;930.6802;;;;
2023/04/25 04:32:17;;;;;;;3.1;2.7;;;;;;;6.43;93.6416;930.6652;;;;
2023/04/25 04:34:41;;;;;;;4.5;2.6;;;;;;;6.27;93.35742;930.6809;;;;
2023/04/25 04:37:06;;;;;;;5.4;4.3;;;;;;;6.24;93.75781;930.7004;;;;
2023/04/25 04:39:38;;;;;;;3.7;3.4;;;;;;;6.33;93.83203;930.6951;;;;
2023/04/25 04:42:04;;;;;;;4;3.4;;;;;;;6.44;93.49609;930.6336;;;;
2023/04/25 04:44:35;;;;;;;6;3.9;;;;;;;6.45;92.7627;930.7547;;;;
2023/04/25 04:47:00;;;;;;;4.3;3.9;;;;;;;6.51;93.11426;930.7997;;;;
2023/04/25 04:49:29;;;;;;;4.6;3.6;;;;;;;6.54;93.02051;930.8239;;;;
2023/04/25 04:51:59;;;;;;;4.7;3.7;;;;;;;6.55;92.67188;930.8492;;;;
2023/04/25 04:54:25;;;;;;;3.8;3.3;;;;;;;6.62;92.05176;930.825;;;;
2023/04/25 04:56:55;;;;;;;4.5;3.5;;;;;;;6.74;92.01074;930.8098;;;;
2023/04/25 04:59:24;;;;;;;3.8;3;;;;;;;6.69;91.79492;930.7064;;;;
2023/04/25 05:01:49;;;;;;;3.1;2.5;;;;;;;6.7;91.93555;930.8166;;;;
2023/04/25 05:04:15;;;;;;;3.8;2.8;;;;;;;6.77;92.19727;930.8592;;;;
2023/04/25 05:06:46;;;;;;;3.1;2.7;;;;;;;6.9;91.88477;930.8134;;;;
2023/04/25 05:09:15;;;;;;;2.8;2.6;;;;;;;6.97;91.52734;930.8547;;;;
2023/04/25 05:11:40;;;;;;;3.6;2.8;;;;;;;7;91.48926;930.764;;;;
2023/04/25 05:14:06;;;;;;;3.1;2.8;;;;;;;7.07;91.45801;930.7103;;;;
2023/04/25 05:16:31;;;;;;;5.2;3.3;;;;;;;7.21;90.99023;930.6756;;;;
2023/04/25 05:19:01;;;;;;;3.4;3;;;;;;;7.27;90.52734;930.7285;;;;
2023/04/25 05:21:27;;;;;;;5.3;3.1;;;;;;;7.36;89.96875;930.7158;;;;
2023/04/25 05:24:19;;;;;;;2.9;2.6;;;;;;;7.28;90.45898;930.7594;;;;
2023/04/25 05:26:47;;;;;;;2.9;2.6;;;;;;;7.1;90.87402;930.6663;;;;
2023/04/25 05:29:13;;;;;;;2.9;2.6;;;;;;;7.19;91.20117;930.6308;;;;
2023/04/25 05:32:34;;;;;;;7.4;5.9;;;;;;;7.23;90.8916;930.5776;;;;
2023/04/25 05:35:02;;;;;;;17.1;11.3;;;;;;;7.28;90.28027;930.6042;;;;
2023/04/25 05:37:27;;;;;;;9.7;7.3;;;;;;;7.4;90.73535;930.5348;;;;
2023/04/25 05:39:57;;;;;;;5;3.4;;;;;;;7.39;90.94922;930.5988;;;;
2023/04/25 05:42:22;;;;;;;3.9;3;;;;;;;7.37;89.82324;930.5637;;;;
2023/04/25 05:44:50;;;;;;;4.1;3.2;;;;;;;7.31;90.15137;930.5751;;;;
2023/04/25 05:47:21;;;;;;;2.7;2.3;;;;;;;7.45;89.18262;930.6013;;;;
2023/04/25 05:49:49;;;;;;;3.7;2.5;;;;;;;7.67;88.07031;930.7728;;;;
2023/04/25 05:52:14;;;;;;;3.2;2.7;;;;;;;7.66;87.9668;930.856;;;;
2023/04/25 05:54:42;;;;;;;3.8;3.2;;;;;;;7.54;88.62109;930.8864;;;;
2023/04/25 05:57:07;;;;;;;4.6;3.3;;;;;;;7.47;88.8916;930.8002;;;;
2023/04/25 05:59:32;;;;;;;3.4;2.8;;;;;;;7.45;88.54785;930.8373;;;;
2023/04/25 06:02:02;;;;;;;4.3;2.9;;;;;;;7.51;88.72656;930.8678;;;;
2023/04/25 06:04:27;;;;;;;4;3.4;;;;;;;7.54;88.73438;930.8911;;;;
2023/04/25 06:06:56;;;;;;;6.3;3.6;;;;;;;7.53;89.56055;930.9077;;;;
2023/04/25 06:09:26;;;;;;;4.1;3.5;;;;;;;7.52;88.94629;930.868;;;;
2023/04/25 06:12:56;;;;;;;5;3.3;;;;;;;7.56;88.79688;930.8343;;;;
2023/04/25 06:15:17;;;;;;;3.4;2.8;;;;;;;8.11;88.29785;930.8186;;;;
2023/04/25 06:17:48;;;;;;;2.9;2.6;;;;;;;8.66;86.30762;930.853;;;;
2023/04/25 06:20:22;;;;;;;2.5;2.3;;;;;;;9.14;81.78125;930.8186;;;;
2023/04/25 06:22:44;;;;;;;2.4;2;;;;;;;9.24;80.10352;930.7501;;;;
2023/04/25 06:25:09;;;;;;;4.7;2.5;;;;;;;9.24;79.05859;930.7358;;;;
2023/04/25 06:27:37;;;;;;;4.6;3.5;;;;;;;8.98;79.79492;930.8005;;;;
2023/04/25 06:30:02;;;;;;;5;3.5;;;;;;;9.07;79.98242;930.7383;;;;
2023/04/25 06:32:32;;;;;;;3.9;2.9;;;;;;;9.93;76.53906;930.7022;;;;
2023/04/25 06:34:59;;;;;;;2.9;2.6;;;;;;;9.98;74.58594;930.7244;;;;
2023/04/25 06:37:25;;;;;;;3.2;2.5;;;;;;;9.96;73.55762;930.7125;;;;
2023/04/25 06:39:55;;;;;;;2.4;2.2;;;;;;;9.48;74.3877;930.6736;;;;
2023/04/25 06:42:20;;;;;;;2.9;2.1;;;;;;;8.92;76.94141;930.7509;;;;
2023/04/25 06:44:50;;;;;;;4;2.2;;;;;;;8.75;78.9668;930.7159;;;;
2023/04/25 06:47:15;;;;;;;4.6;2.7;;;;;;;8.83;80.30078;930.7;;;;
2023/04/25 06:49:58;;;;;;;3.2;2.3;;;;;;;8.74;78.97852;930.7327;;;;
2023/04/25 06:52:31;;;;;;;2.6;2.3;;;;;;;9.03;79.33887;930.7214;;;;
2023/04/25 06:54:56;;;;;;;2.6;2.3;;;;;;;9.38;77.17188;930.7385;;;;
2023/04/25 06:57:25;;;;;;;3.4;2.2;;;;;;;9.61;75.85645;930.6805;;;;
2023/04/25 06:59:54;;;;;;;2.2;2;;;;;;;10.14;74.15723;930.6672;;;;
2023/04/25 07:02:21;;;;;;;3.4;2;;;;;;;10.45;72.31641;930.6182;;;;
2023/04/25 07:04:45;;;;;;;2.6;2.1;;;;;;;10.56;71.44434;930.6011;;;;
2023/04/25 07:07:13;;;;;;;2.4;2.2;;;;;;;10.19;72.6377;930.5812;;;;
2023/04/25 07:09:38;;;;;;;2.2;1.8;;;;;;;10.18;71.88184;930.6012;;;;
2023/04/25 07:12:04;;;;;;;2.3;2;;;;;;;10.64;70.54395;930.5566;;;;
2023/04/25 07:14:29;;;;;;;2.5;1.9;;;;;;;10.6;70.64063;930.519;;;;
2023/04/25 07:16:57;;;;;;;1.9;1.8;;;;;;;10.66;68.9248;930.6314;;;;
2023/04/25 07:19:21;;;;;;;2.8;2;;;;;;;10.72;68.90039;930.5865;;;;
2023/04/25 07:21:48;;;;;;;3.2;1.7;;;;;;;10.77;68.40527;930.5751;;;;
2023/04/25 07:24:13;;;;;;;3.2;1.9;;;;;;;10.47;68.91895;930.5767;;;;
2023/04/25 07:26:41;;;;;;;3.1;1.9;;;;;;;10.71;69.02539;930.5778;;;;
2023/04/25 07:32:47;;;;;;;3.3;1.6;;;;;;;11.52;66.32715;930.5046;;;;
2023/04/25 07:35:16;;;;;;;2.8;1.5;;;;;;;11.83;63.6377;930.488;;;;
2023/04/25 07:37:46;;;;;;;2.8;1.9;;;;;;;11.91;62.2627;930.4426;;;;
2023/04/25 07:40:11;;;;;;;2.6;1.7;;;;;;;11.72;63.26758;930.4707;;;;
2023/04/25 07:42:36;;;;;;;1.4;1.3;;;;;;;11.7;63.84668;930.4614;;;;
2023/04/25 07:45:12;;;;;;;2.2;1.6;;;;;;;11.71;63.97559;930.4205;;;;
2023/04/25 07:47:40;;;;;;;2.4;1.5;;;;;;;11.5;64.7793;930.4633;;;;
2023/04/25 07:50:12;;;;;;;4.1;1.6;;;;;;;11.7;64.00879;930.4166;;;;
2023/04/25 07:52:44;;;;;;;2;1.6;;;;;;;11.84;65.45996;930.4369;;;;
2023/04/25 07:55:18;;;;;;;2.3;1.5;;;;;;;11.78;62.85156;930.3956;;;;
2023/04/25 07:57:49;;;;;;;2.8;1.7;;;;;;;12.28;61.8584;930.4279;;;;
2023/04/25 08:00:20;;;;;;;1.6;1.4;;;;;;;12.59;60.44531;930.4425;;;;
2023/04/25 08:02:53;;;;;;;2.1;1.5;;;;;;;12.54;59.14258;930.3936;;;;
2023/04/25 08:05:24;;;;;;;2.1;1.4;;;;;;;12.64;57.65332;930.4542;;;;
2023/04/25 08:07:49;;;;;;;2.4;1.4;;;;;;;12.71;56.6875;930.3943;;;;
2023/04/25 08:10:14;;;;;;;3;1.4;;;;;;;12.76;57.94434;930.4265;;;;
2023/04/25 08:12:44;;;;;;;1.9;1.6;;;;;;;12.83;56.91992;930.4459;;;;
2023/04/25 08:15:15;;;;;;;2;1.4;;;;;;;12.92;53.63672;930.3801;;;;
2023/04/25 08:17:39;;;;;;;1.4;1.3;;;;;;;12.8;56.00977;930.4292;;;;
2023/04/25 08:20:06;;;;;;;2.4;1.8;;;;;;;12.77;54.73242;930.3561;;;;
2023/04/25 08:22:31;;;;;;;3.7;1.3;;;;;;;12.75;55.75098;930.3491;;;;
2023/04/25 08:25:01;;;;;;;2.3;1.3;;;;;;;13.11;53.24707;930.3156;;;;
2023/04/25 08:27:26;;;;;;;2.1;1.2;;;;;;;13.55;52.41504;930.3423;;;;
2023/04/25 08:29:53;;;;;;;2.9;1.2;;;;;;;13.47;53.24512;930.2508;;;;
2023/04/25 08:32:18;;;;;;;2.2;1.4;;;;;;;13.38;53.07422;930.2525;;;;
2023/04/25 08:34:46;;;;;;;2.6;1.1;;;;;;;13.32;54.1582;930.2502;;;;
2023/04/25 08:37:11;;;;;;;2.3;1.3;;;;;;;13.43;53.4248;930.1522;;;;
2023/04/25 08:39:41;;;;;;;1.4;1.3;;;;;;;12.98;55.55078;930.1692;;;;
2023/04/25 08:42:06;;;;;;;3.2;1.3;;;;;;;12.87;56.31641;930.1803;;;;
2023/04/25 08:44:32;;;;;;;2.5;1.1;;;;;;;13.07;56.0332;930.277;;;;
2023/04/25 08:46:57;;;;;;;1.9;1.1;;;;;;;13.13;54.86914;930.2139;;;;
2023/04/25 08:49:26;;;;;;;2.6;1.3;;;;;;;13.37;54.64746;930.2606;;;;
2023/04/25 08:51:54;;;;;;;2.1;1.3;;;;;;;14.04;51.68066;930.1627;;;;
2023/04/25 08:54:23;;;;;;;2.5;1.5;;;;;;;14.14;50.98926;930.1417;;;;
2023/04/25 08:56:47;;;;;;;1.5;1;;;;;;;14.33;50.97754;930.1738;;;;
2023/04/25 08:59:17;;;;;;;2.9;1.4;;;;;;;14.53;50.86328;930.1692;;;;
2023/04/25 09:01:42;;;;;;;1.5;1;;;;;;;14.83;48.83398;930.1511;;;;
2023/04/25 09:04:09;;;;;;;2.6;1.1;;;;;;;15.02;48.08105;930.0875;;;;
2023/04/25 09:06:35;;;;;;;3.4;1.3;;;;;;;14.76;48.43359;930.2108;;;;
2023/04/25 09:09:03;;;;;;;2.3;1.1;;;;;;;14.86;45.33105;930.1378;;;;
2023/04/25 09:11:28;;;;;;;3.3;1.6;;;;;;;14.8;45.84375;930.1876;;;;
2023/04/25 09:13:56;;;;;;;1.5;1.2;;;;;;;13.98;50.47559;930.2065;;;;
2023/04/25 09:16:29;;;;;;;3.1;1.6;;;;;;;14.74;49.04199;930.2015;;;;
2023/04/25 09:18:54;;;;;;;2.1;0.9;;;;;;;15.22;41.42188;930.1789;;;;
2023/04/25 09:21:24;;;;;;;2.3;1.2;;;;;;;15.22;43.66016;930.1316;;;;
2023/04/25 09:23:52;;;;;;;2.7;1;;;;;;;14.64;44.17871;930.1241;;;;
2023/04/25 09:26:16;;;;;;;0.8;0.8;;;;;;;14.29;46.22754;930.1161;;;;
2023/04/25 09:28:42;;;;;;;2.1;0.9;;;;;;;14.09;44.45605;930.1163;;;;
2023/04/25 09:31:08;;;;;;;1.5;0.9;;;;;;;13.69;44.12891;930.1174;;;;
2023/04/25 09:33:34;;;;;;;1.2;0.9;;;;;;;13.91;44.05859;930.1573;;;;
2023/04/25 09:36:02;;;;;;;1.8;1.1;;;;;;;14.02;45.49707;930.1558;;;;
2023/04/25 09:38:27;;;;;;;2.2;0.8;;;;;;;14.95;43.14844;930.108;;;;
2023/04/25 09:40:52;;;;;;;1.2;0.8;;;;;;;15.71;43.94043;930.1626;;;;
2023/04/25 09:43:21;;;;;;;1.6;0.9;;;;;;;16.83;37.91309;930.1746;;;;
2023/04/25 09:45:51;;;;;;;2.6;0.9;;;;;;;17.55;35.89844;930.1602;;;;
2023/04/25 09:48:14;;;;;;;1.5;0.9;;;;;;;16.78;38.03613;930.2062;;;;
2023/04/25 09:50:42;;;;;;;2.9;1;;;;;;;16.71;38.14648;930.1582;;;;
2023/04/25 09:53:08;;;;;;;1.5;0.9;;;;;;;16.4;39.19531;930.2059;;;;
2023/04/25 09:55:37;;;;;;;1;0.8;;;;;;;16.16;38.35254;930.1505;;;;
2023/04/25 09:58:03;;;;;;;1.4;1.1;;;;;;;16.23;36.46289;930.2213;;;;
2023/04/25 10:00:28;;;;;;;1.4;0.9;;;;;;;16.04;35.70508;930.2355;;;;
2023/04/25 10:02:53;;;;;;;1.2;1.1;;;;;;;16.18;36.28516;930.3186;;;;
2023/04/25 10:05:22;;;;;;;2;0.9;;;;;;;16.12;37.97852;930.3829;;;;
2023/04/25 10:07:47;;;;;;;2.4;1.2;;;;;;;15.51;40.375;930.3887;;;;
2023/04/25 10:10:16;;;;;;;4.3;1.4;;;;;;;14.68;43.67676;930.3557;;;;
2023/04/25 10:12:42;;;;;;;1.5;1;;;;;;;14.13;45.01367;930.1827;;;;
2023/04/25 10:15:06;;;;;;;1.2;1.1;;;;;;;13.89;44.02246;930.2601;;;;
2023/04/25 10:17:37;;;;;;;1.9;1.1;;;;;;;13.68;46.09375;930.2472;;;;
2023/04/25 10:20:03;;;;;;;1.2;1.1;;;;;;;13.54;45.84961;930.2561;;;;
2023/04/25 10:22:28;;;;;;;1.7;1;;;;;;;13.11;47.81445;930.2797;;;;
2023/04/25 10:24:54;;;;;;;1.7;1;;;;;;;13.19;46.23828;930.2684;;;;
2023/04/25 10:27:19;;;;;;;2.3;1.1;;;;;;;13.03;48.95313;930.3;;;;
2023/04/25 10:29:45;;;;;;;2.6;1.3;;;;;;;13.03;48.84961;930.2416;;;;
2023/04/25 10:32:14;;;;;;;2.2;1.3;;;;;;;13.07;48.47656;930.2802;;;;
2023/04/25 10:34:40;;;;;;;1.9;1.1;;;;;;;13.46;47.62305;930.2838;;;;
2023/04/25 10:37:09;;;;;;;2.5;1;;;;;;;13.77;44.55176;930.248;;;;
2023/04/25 10:39:34;;;;;;;1.1;1;;;;;;;13.78;43.43555;930.3279;;;;
2023/04/25 10:42:03;;;;;;;1.4;0.8;;;;;;;13.62;43.33887;930.368;;;;
2023/04/25 10:44:28;;;;;;;1.5;1;;;;;;;13.47;44.53125;930.5179;;;;
2023/04/25 10:46:58;;;;;;;1.1;1;;;;;;;13.48;44.65918;930.5945;;;;
2023/04/25 10:49:22;;;;;;;2.2;1.1;;;;;;;13.78;42.9873;930.5977;;;;
2023/04/25 10:51:52;;;;;;;1.5;0.9;;;;;;;13.51;45.73145;930.7285;;;;
2023/04/25 10:54:17;;;;;;;2.5;0.9;;;;;;;13.1;45.27539;930.6874;;;;
2023/04/25 10:56:46;;;;;;;1.7;1;;;;;;;13.01;45.00195;930.7381;;;;
2023/04/25 10:59:11;;;;;;;1.8;0.9;;;;;;;13.05;45.53418;930.8495;;;;
2023/04/25 11:01:41;;;;;;;1.2;0.8;;;;;;;12.74;44.9502;930.8102;;;;
2023/04/25 11:04:11;;;;;;;0.8;0.8;;;;;;;12.2;49.13574;930.9966;;;;
2023/04/25 11:06:41;;;;;;;1;0.7;;;;;;;11.9;50.03027;931.073;;;;
2023/04/25 11:09:13;;;;;;;2;0.9;;;;;;;11.63;51.14258;931.1166;;;;
2023/04/25 11:11:36;;;;;;;1.5;0.8;;;;;;;11.5;51.4248;931.1202;;;;
2023/04/25 11:14:02;;;;;;;1.2;0.7;;;;;;;11.43;52.7793;931.1461;;;;
2023/04/25 11:16:36;;;;;;;1.2;0.7;;;;;;;11.89;52.04395;931.168;;;;
2023/04/25 11:19:01;;;;;;;0.8;0.8;;;;;;;12.18;53.28223;931.1677;;;;
2023/04/25 11:21:31;;;;;;;1.5;0.8;;;;;;;12.98;55.74609;931.1505;;;;
2023/04/25 11:23:59;;;;;;;0.9;0.7;;;;;;;14.11;50.7334;931.0284;;;;
2023/04/25 11:26:24;;;;;;;1.3;0.7;;;;;;;14.68;48.97949;930.9832;;;;
2023/04/25 11:28:53;;;;;;;0.7;0.7;;;;;;;14.61;48.94824;930.9088;;;;
2023/04/25 11:31:18;;;;;;;3.6;0.9;;;;;;;15.53;47.74609;930.8744;;;;
2023/04/25 11:33:49;;;;;;;2.2;0.8;;;;;;;16.9;43.30664;930.906;;;;
2023/04/25 11:36:20;;;;;;;1.6;1;;;;;;;18.37;41.96387;930.8466;;;;
2023/04/25 11:38:45;;;;;;;1.9;1.1;;;;;;;17.55;42.44238;930.7125;;;;
2023/04/25 11:41:13;;;;;;;2.7;0.8;;;;;;;18.17;40.49316;930.7219;;;;
2023/04/25 11:43:38;;;;;;;1.3;0.9;;;;;;;17.39;41.18652;930.8063;;;;
2023/04/25 11:46:10;;;;;;;1.9;1;;;;;;;17.25;41.28906;930.827;;;;
2023/04/25 11:48:40;;;;;;;2.2;1.2;;;;;;;15.86;43.49316;930.8617;;;;
2023/04/25 11:51:12;;;;;;;2.4;0.8;;;;;;;15.25;43.35156;930.8184;;;;
2023/04/25 11:53:37;;;;;;;1.1;0.8;;;;;;;15.71;44.54102;930.7629;;;;
2023/04/25 11:56:02;;;;;;;1.5;0.9;;;;;;;16.79;42.99609;930.6914;;;;
2023/04/25 11:58:27;;;;;;;1.2;0.8;;;;;;;17.46;42.21387;930.7255;;;;
2023/04/25 12:00:52;;;;;;;2.3;1.8;;;;;;;17.81;40.63379;930.7311;;;;
2023/04/25 12:03:21;;;;;;;0.7;0.6;;;;;;;17.93;37.09082;930.6197;;;;
2023/04/25 12:05:45;;;;;;;1.4;0.6;;;;;;;18.23;40.0332;930.6808;;;;
2023/04/25 12:08:12;;;;;;;0.7;0.5;;;;;;;18.64;37.57031;930.6513;;;;
2023/04/25 12:10:36;;;;;;;1.1;0.4;;;;;;;18.18;36.22852;930.5187;;;;
2023/04/25 12:13:02;;;;;;;1.5;1.1;;;;;;;17.31;39.84473;930.7231;;;;
2023/04/25 12:15:34;;;;;;;1;0.6;;;;;;;16.52;42.10059;930.6827;;;;
2023/04/25 12:18:03;;;;;;;2.1;1.4;;;;;;;15.13;44.63184;930.705;;;;
2023/04/25 12:20:28;;;;;;;2.2;0.9;;;;;;;15.49;43.62988;930.5778;;;;
2023/04/25 12:22:53;;;;;;;0.4;0.4;;;;;;;14.57;39.87402;930.6498;;;;
2023/04/25 12:25:19;;;;;;;1.6;0.6;;;;;;;14.42;45.57324;930.7028;;;;
2023/04/25 12:27:44;;;;;;;0.8;0.7;;;;;;;14.99;45.57617;930.7139;;;;
2023/04/25 12:30:14;;;;;;;2.1;1.3;;;;;;;14.93;46.66504;930.6717;;;;
2023/04/25 12:32:39;;;;;;;0.6;0.6;;;;;;;14.68;44.94434;930.5616;;;;
2023/04/25 12:35:06;;;;;;;1.3;0.4;;;;;;;15.22;42.37988;930.426;;;;
2023/04/25 12:37:30;;;;;;;0.7;0.4;;;;;;;15.23;41.65332;930.259;;;;
2023/04/25 12:39:59;;;;;;;0.4;0.4;;;;;;;15.44;39.95215;930.3895;;;;
2023/04/25 12:42:25;;;;;;;0.3;0.3;;;;;;;15.81;40.06738;930.3744;;;;
2023/04/25 12:44:52;;;;;;;1.5;0.5;;;;;;;15.25;39.90039;930.3211;;;;
2023/04/25 12:47:17;;;;;;;0.7;0.4;;;;;;;14.95;39.33105;930.4966;;;;
2023/04/25 12:49:43;;;;;;;0.4;0.4;;;;;;;14.68;40.9668;930.6227;;;;
2023/04/25 12:52:08;;;;;;;1.7;0.6;;;;;;;14.58;46.21289;930.7844;;;;
2023/04/25 12:54:36;;;;;;;1.1;0.9;;;;;;;14.7;48.98047;930.8778;;;;
2023/04/25 12:57:02;;;;;;;1.8;0.8;;;;;;;14.73;49.27246;930.9942;;;;
2023/04/25 12:59:27;;;;;;;0.9;0.6;;;;;;;14.08;49.61328;931.0009;;;;
2023/04/25 13:01:56;;;;;;;0.7;0.5;;;;;;;14.33;48.31641;930.9324;;;;
2023/04/25 13:04:26;;;;;;;0.6;0.6;;;;;;;13.94;50.65625;931.1188;;;;
2023/04/25 13:06:51;;;;;;;0.7;0.4;;;;;;;14.25;50.77148;931.1972;;;;
2023/04/25 13:09:17;;;;;;;0.4;0.4;;;;;;;14.5;51.54004;931.147;;;;
2023/04/25 13:11:43;;;;;;;1.3;0.7;;;;;;;14.3;55.3623;931.056;;;;
2023/04/25 13:14:10;;;;;;;1.6;0.6;;;;;;;14.47;56.12109;931.0427;;;;
2023/04/25 13:16:36;;;;;;;0.6;0.6;;;;;;;14.5;54.58105;930.8363;;;;
2023/04/25 13:19:03;;;;;;;0.5;0.5;;;;;;;13.64;57.25586;930.7612;;;;
2023/04/25 13:21:28;;;;;;;2.1;0.7;;;;;;;12.79;60.86328;930.8408;;;;
2023/04/25 13:23:55;;;;;;;1.4;0.7;;;;;;;12.34;62.40527;930.7274;;;;
2023/04/25 13:26:20;;;;;;;1.7;0.6;;;;;;;11.99;64.07324;930.8466;;;;
2023/04/25 13:28:47;;;;;;;1.3;0.4;;;;;;;11.84;62.97363;930.9594;;;;
2023/04/25 13:31:12;;;;;;;0.7;0.5;;;;;;;11.3;67.28906;931.1512;;;;
2023/04/25 13:33:41;;;;;;;0.5;0.5;;;;;;;10.91;69.18262;931.2933;;;;
2023/04/25 13:36:06;;;;;;;0.5;0.5;;;;;;;10.64;69.54883;931.3105;;;;
2023/04/25 13:38:32;;;;;;;2;0.5;;;;;;;10.27;71.9209;931.2174;;;;
2023/04/25 13:40:57;;;;;;;0.4;0.4;;;;;;;10.19;70.4248;931.419;;;;
2023/04/25 13:43:27;;;;;;;0.4;0.4;;;;;;;10.46;68.57422;931.5907;;;;
2023/04/25 13:45:52;;;;;;;0.4;0.4;;;;;;;10.52;68;931.7897;;;;
2023/04/25 13:48:23;;;;;;;0.3;0.3;;;;;;;10.68;66.78223;931.8097;;;;
2023/04/25 13:50:52;;;;;;;0.5;0.3;;;;;;;10.75;67.42969;931.9305;;;;
2023/04/25 13:53:17;;;;;;;0.4;0.4;;;;;;;10.65;68.79785;931.9506;;;;
2023/04/25 13:55:45;;;;;;;1.5;0.5;;;;;;;10.53;68.65332;931.9815;;;;
2023/04/25 13:58:10;;;;;;;0.7;0.4;;;;;;;10.76;68.89551;932.0516;;;;
2023/04/25 14:00:38;;;;;;;0.4;0.3;;;;;;;10.93;67.91797;932.0881;;;;
2023/04/25 14:03:04;;;;;;;0.4;0.4;;;;;;;10.69;68.92969;932.058;;;;
2023/04/25 14:05:37;;;;;;;1.1;0.6;;;;;;;10.59;69.1875;932.0602;;;;
2023/04/25 14:07:58;;;;;;;0.6;0.4;;;;;;;10.7;67.51465;932.1233;;;;
2023/04/25 14:10:24;;;;;;;0.6;0.6;;;;;;;10.38;71.1748;932.1309;;;;
2023/04/25 14:12:49;;;;;;;0.5;0.4;;;;;;;9.92;72.27344;932.1694;;;;
2023/04/25 14:15:18;;;;;;;0.4;0.4;;;;;;;9.73;73.8252;932.2489;;;;
2023/04/25 14:17:48;;;;;;;0.5;0.4;;;;;;;9.78;74.83594;932.2792;;;;
2023/04/25 14:20:12;;;;;;;4.4;0.7;;;;;;;9.68;75.76465;932.2598;;;;
2023/04/25 14:22:41;;;;;;;1.1;0.5;;;;;;;9.38;78.46973;932.4188;;;;
2023/04/25 14:25:03;;;;;;;0.4;0.4;;;;;;;9.54;79.14648;932.3354;;;;
2023/04/25 14:27:30;;;;;;;0.3;0.3;;;;;;;9.6;78.95313;932.408;;;;
2023/04/25 14:29:55;;;;;;;0.3;0.3;;;;;;;10.01;78.43652;932.4576;;;;
2023/04/25 14:32:23;;;;;;;0.3;0.2;;;;;;;10.45;74.57715;932.4814;;;;
2023/04/25 14:34:48;;;;;;;1;0.4;;;;;;;10.47;71.5332;932.4216;;;;
2023/04/25 14:37:19;;;;;;;0.8;0.4;;;;;;;10.81;72.75391;932.562;;;;
2023/04/25 14:39:44;;;;;;;0.3;0.3;;;;;;;11.15;70.69531;932.5828;;;;
2023/04/25 14:42:15;;;;;;;0.4;0.3;;;;;;;11.09;70.25195;932.5996;;;;
2023/04/25 14:44:43;;;;;;;0.3;0.3;;;;;;;11.4;65.66797;932.5624;;;;
2023/04/25 14:47:08;;;;;;;0.3;0.3;;;;;;;11.36;64.64453;932.5545;;;;
2023/04/25 14:49:36;;;;;;;0.3;0.3;;;;;;;11.1;62.46582;932.5605;;;;
2023/04/25 14:52:02;;;;;;;0.6;0.5;;;;;;;10.83;64.58789;932.6618;;;;
2023/04/25 14:54:28;;;;;;;0.3;0.3;;;;;;;10.82;66.89258;932.7136;;;;
2023/04/25 14:56:53;;;;;;;0.4;0.3;;;;;;;10.97;66.41504;932.8114;;;;
2023/04/25 14:59:20;;;;;;;0.3;0.3;;;;;;;10.81;65.80762;932.8394;;;;
2023/04/25 15:01:44;;;;;;;0.7;0.5;;;;;;;10.4;67.77734;933.0461;;;;
2023/04/25 15:04:17;;;;;;;0.4;0.4;;;;;;;10.35;66.54785;933.1241;;;;
2023/04/25 15:06:44;;;;;;;0.4;0.4;;;;;;;9.32;68.4043;933.0581;;;;
2023/04/25 15:09:10;;;;;;;0.3;0.3;;;;;;;8.87;72.84863;933.207;;;;
2023/04/25 15:11:38;;;;;;;0.6;0.3;;;;;;;8.32;76.09473;933.0275;;;;
2023/04/25 15:14:03;;;;;;;0.6;0.3;;;;;;;7.91;80.71973;933.202;;;;
2023/04/25 15:16:32;;;;;;;0.9;0.3;;;;;;;7.73;83.28516;933.3344;;;;
2023/04/25 15:19:05;;;;;;;0.3;0.3;;;;;;;7.63;84.05762;933.3982;;;;
2023/04/25 15:21:31;;;;;;;0.3;0.3;;;;;;;7.53;82.29199;933.5098;;;;
2023/04/25 15:23:57;;;;;;;0.2;0.2;;;;;;;7.63;82.73145;933.4727;;;;
2023/04/25 15:26:22;;;;;;;0.5;0.4;;;;;;;7.76;79.7041;933.5281;;;;
2023/04/25 15:28:48;;;;;;;1;0.5;;;;;;;7.84;80.56055;933.5104;;;;
2023/04/25 15:31:14;;;;;;;0.5;0.4;;;;;;;7.92;79.22363;933.4114;;;;